Time;durP1;ratioP1;P1;durP2;ratioP2;P2;SDS_P1;SDS_P2;PMS_P1;PMS_P2;Temp;Humidity;BMP_temperature;BMP_pressure;BME280_temperature;BME280_humidity;BME280_pressure;Samples;Min_cycle;Max_cycle;Signal;HPM_P1;HPM_P2
2022/08/22 00:00:15;;;;;;;4.97;3.13;;;;;;;;;;4995327;28;20030;-81
2022/08/22 00:02:59;;;;;;;7.80;4.07;;;;;;;;;;4994079;28;20018;-81
2022/08/22 00:05:52;;;;;;;6.18;3.85;;;;;;;;;;4990184;28;20030;-81
2022/08/22 00:08:27;;;;;;;8.02;3.65;;;;;;;;;;4993223;28;20470;-81
2022/08/22 00:11:05;;;;;;;6.85;3.83;;;;;;;;;;4996916;28;20089;-81
2022/08/22 00:13:54;;;;;;;7.55;3.38;;;;;;;;;;4993961;28;20022;-81
2022/08/22 00:16:19;;;;;;;6.68;3.65;;;;;;;;;;5000206;28;20029;-81
2022/08/22 00:18:52;;;;;;;5.50;3.28;;;;;;;;;;4994886;28;20050;-81
2022/08/22 00:21:26;;;;;;;6.85;3.85;;;;;;;;;;4999080;28;20103;-80
2022/08/22 00:24:16;;;;;;;6.47;3.67;;;;;;;;;;5008107;28;20478;-80
2022/08/22 00:26:44;;;;;;;4.90;3.67;;;;;;;;;;4993843;28;20479;-81
2022/08/22 00:29:20;;;;;;;6.15;3.25;;;;;;;;;;5003391;28;20026;-81
2022/08/22 00:32:09;;;;;;;5.80;3.72;;;;;;;;;;4993660;28;20022;-81
2022/08/22 00:34:58;;;;;;;7.68;3.88;;;;;;;;;;4990963;28;20033;-81
2022/08/22 00:37:42;;;;;;;6.18;4.25;;;;;;;;;;4991706;28;20034;-81
2022/08/22 00:40:44;;;;;;;6.93;4.72;;;;;;;;;;4993544;28;20034;-81
2022/08/22 00:43:26;;;;;;;8.27;4.03;;;;;;;;;;5000373;28;20061;-80
2022/08/22 00:46:06;;;;;;;7.22;5.32;;;;;;;;;;5001375;28;20076;-81
2022/08/22 00:48:59;;;;;;;7.47;4.32;;;;;;;;;;4993340;28;20018;-81
2022/08/22 00:51:40;;;;;;;6.13;3.70;;;;;;;;;;4993273;28;20109;-80
2022/08/22 00:54:38;;;;;;;9.43;4.47;;;;;;;;;;4993037;28;20050;-80
2022/08/22 00:57:23;;;;;;;11.93;4.25;;;;;;;;;;4975121;28;20038;-80
2022/08/22 01:00:07;;;;;;;5.10;3.33;;;;;;;;;;4993174;28;20066;-80
2022/08/22 01:03:03;;;;;;;5.72;3.38;;;;;;;;;;4984444;28;20037;-80
2022/08/22 01:05:31;;;;;;;5.80;3.80;;;;;;;;;;4992650;28;20038;-80
2022/08/22 01:08:32;;;;;;;6.03;3.08;;;;;;;;;;4993163;28;20033;-80
2022/08/22 01:11:06;;;;;;;5.30;2.85;;;;;;;;;;4960010;28;20034;-81
2022/08/22 01:14:02;;;;;;;4.82;2.70;;;;;;;;;;4994122;28;20532;-80
2022/08/22 01:16:53;;;;;;;5.07;3.47;;;;;;;;;;4991849;28;20026;-81
2022/08/22 01:19:43;;;;;;;4.75;2.78;;;;;;;;;;4998116;28;20042;-81
2022/08/22 01:22:41;;;;;;;6.07;3.25;;;;;;;;;;5005847;28;20056;-81
2022/08/22 01:25:36;;;;;;;3.88;2.78;;;;;;;;;;4992092;28;20030;-81
2022/08/22 01:28:39;;;;;;;5.00;3.03;;;;;;;;;;4999331;28;20014;-82
2022/08/22 01:31:11;;;;;;;4.10;3.03;;;;;;;;;;5000132;28;20109;-81
2022/08/22 01:34:14;;;;;;;5.30;3.47;;;;;;;;;;4995878;28;20041;-81
2022/08/22 01:36:54;;;;;;;5.53;3.45;;;;;;;;;;4990291;28;20030;-81
2022/08/22 01:39:40;;;;;;;4.07;2.95;;;;;;;;;;4978867;28;20434;-81
2022/08/22 01:42:14;;;;;;;9.40;4.45;;;;;;;;;;4992268;28;20030;-81
2022/08/22 01:45:25;;;;;;;7.93;3.33;;;;;;;;;;4992135;28;20434;-82
2022/08/22 01:48:03;;;;;;;8.13;3.88;;;;;;;;;;4953768;28;20487;-81
2022/08/22 01:50:40;;;;;;;4.55;3.25;;;;;;;;;;4992521;28;20053;-81
2022/08/22 01:53:06;;;;;;;7.32;3.45;;;;;;;;;;5005657;28;20022;-81
2022/08/22 01:55:40;;;;;;;6.80;3.47;;;;;;;;;;4993960;28;20493;-81
2022/08/22 01:58:19;;;;;;;6.35;3.58;;;;;;;;;;4993974;28;20088;-81
2022/08/22 02:01:01;;;;;;;5.80;3.90;;;;;;;;;;4992016;28;20482;-81
2022/08/22 02:03:34;;;;;;;7.57;3.67;;;;;;;;;;4991861;28;20034;-81
2022/08/22 02:06:14;;;;;;;5.78;3.33;;;;;;;;;;4992051;28;20025;-81
2022/08/22 02:08:47;;;;;;;5.28;3.53;;;;;;;;;;4991555;28;20108;-80
2022/08/22 02:11:43;;;;;;;8.02;3.90;;;;;;;;;;4997718;28;20475;-81
2022/08/22 02:14:14;;;;;;;5.57;3.28;;;;;;;;;;4991748;28;20049;-81
2022/08/22 02:16:46;;;;;;;7.15;4.13;;;;;;;;;;4991704;28;20026;-81
2022/08/22 02:19:15;;;;;;;8.93;3.50;;;;;;;;;;4991496;28;20042;-81
2022/08/22 02:21:52;;;;;;;5.15;3.33;;;;;;;;;;4991448;28;20030;-82
2022/08/22 02:24:46;;;;;;;6.05;3.42;;;;;;;;;;4991497;28;20411;-81
2022/08/22 02:27:34;;;;;;;7.40;3.45;;;;;;;;;;4991491;28;20037;-80
2022/08/22 02:30:06;;;;;;;5.03;3.30;;;;;;;;;;5003902;28;20033;-80
2022/08/22 02:32:34;;;;;;;5.80;3.53;;;;;;;;;;4995406;28;20026;-81
2022/08/22 02:35:13;;;;;;;8.25;3.33;;;;;;;;;;4991420;28;20498;-81
2022/08/22 02:37:54;;;;;;;5.15;3.70;;;;;;;;;;4993628;28;20108;-80
2022/08/22 02:40:29;;;;;;;10.68;4.85;;;;;;;;;;4991366;28;20033;-81
2022/08/22 02:43:16;;;;;;;8.45;3.78;;;;;;;;;;4991323;28;20493;-81
2022/08/22 02:46:11;;;;;;;7.65;3.80;;;;;;;;;;4991471;28;20022;-80
2022/08/22 02:49:04;;;;;;;6.80;4.05;;;;;;;;;;4995450;28;20055;-81
2022/08/22 02:51:35;;;;;;;7.50;4.43;;;;;;;;;;4990999;28;20062;-80
2022/08/22 02:54:19;;;;;;;7.72;4.13;;;;;;;;;;4999845;28;20385;-81
2022/08/22 02:57:00;;;;;;;9.57;4.20;;;;;;;;;;4991710;28;20032;-80
2022/08/22 02:59:26;;;;;;;7.07;3.60;;;;;;;;;;4981519;28;20050;-81
2022/08/22 03:01:53;;;;;;;8.30;3.75;;;;;;;;;;4996597;28;20025;-81
2022/08/22 03:04:46;;;;;;;7.78;4.50;;;;;;;;;;4990922;28;20076;-81
2022/08/22 03:07:26;;;;;;;7.22;4.13;;;;;;;;;;4991142;28;20033;-81
2022/08/22 03:10:17;;;;;;;6.85;3.80;;;;;;;;;;4978758;28;20053;-81
2022/08/22 03:12:51;;;;;;;5.40;3.33;;;;;;;;;;4991077;28;20062;-81
2022/08/22 03:15:47;;;;;;;7.05;3.70;;;;;;;;;;4991014;28;20381;-81
2022/08/22 03:18:23;;;;;;;5.38;3.85;;;;;;;;;;4996067;28;20053;-81
2022/08/22 03:21:08;;;;;;;7.55;4.28;;;;;;;;;;4973481;28;20046;-81
2022/08/22 03:23:50;;;;;;;5.55;4.20;;;;;;;;;;4991775;28;20108;-81
2022/08/22 03:26:28;;;;;;;7.35;3.55;;;;;;;;;;4989690;28;20034;-81
2022/08/22 03:29:08;;;;;;;6.15;3.80;;;;;;;;;;4990745;28;20522;-82
2022/08/22 03:31:35;;;;;;;6.47;3.95;;;;;;;;;;4991171;28;20034;-81
2022/08/22 03:34:16;;;;;;;6.50;4.43;;;;;;;;;;4997799;28;20056;-81
2022/08/22 03:37:03;;;;;;;7.53;4.10;;;;;;;;;;4988957;28;20030;-81
2022/08/22 03:40:16;;;;;;;10.15;3.83;;;;;;;;;;4996263;28;20046;-81
2022/08/22 03:43:05;;;;;;;6.28;4.80;;;;;;;;;;4930377;28;20046;-81
2022/08/22 03:45:58;;;;;;;6.22;4.18;;;;;;;;;;4994203;28;20391;-81
2022/08/22 03:48:52;;;;;;;6.60;4.07;;;;;;;;;;5004326;28;20029;-81
2022/08/22 03:51:36;;;;;;;6.72;4.03;;;;;;;;;;4993276;28;20471;-81
2022/08/22 03:54:28;;;;;;;6.43;4.30;;;;;;;;;;4976026;28;20030;-80
2022/08/22 03:57:12;;;;;;;6.00;4.00;;;;;;;;;;4999072;28;20101;-81
2022/08/22 04:00:09;;;;;;;6.55;3.90;;;;;;;;;;4990609;28;20030;-81
2022/08/22 04:02:59;;;;;;;6.75;4.65;;;;;;;;;;4990702;28;20876;-81
2022/08/22 04:05:24;;;;;;;6.30;4.03;;;;;;;;;;4972741;28;20031;-81
2022/08/22 04:08:18;;;;;;;8.20;4.25;;;;;;;;;;4990503;28;20422;-81
2022/08/22 04:11:06;;;;;;;9.07;3.83;;;;;;;;;;4995112;28;20427;-81
2022/08/22 04:13:31;;;;;;;7.53;4.45;;;;;;;;;;4992873;28;20101;-81
2022/08/22 04:16:06;;;;;;;7.13;3.50;;;;;;;;;;4993056;28;20102;-81
2022/08/22 04:19:09;;;;;;;7.47;4.47;;;;;;;;;;4991516;28;20046;-80
2022/08/22 04:21:38;;;;;;;9.55;4.18;;;;;;;;;;4992373;28;20033;-80
2022/08/22 04:24:33;;;;;;;6.50;3.97;;;;;;;;;;4992967;28;20479;-81
2022/08/22 04:27:13;;;;;;;5.75;3.92;;;;;;;;;;4993772;28;20379;-80
2022/08/22 04:29:50;;;;;;;6.85;3.90;;;;;;;;;;4997054;28;20026;-81
2022/08/22 04:32:35;;;;;;;6.07;3.55;;;;;;;;;;4993226;28;20061;-81
2022/08/22 04:35:31;;;;;;;7.13;4.47;;;;;;;;;;4993579;28;20037;-81
2022/08/22 04:38:25;;;;;;;9.60;5.57;;;;;;;;;;4996553;28;20031;-81
2022/08/22 04:41:09;;;;;;;89.60;60.78;;;;;;;;;;4995407;28;20105;-81
2022/08/22 04:43:43;;;;;;;117.68;83.25;;;;;;;;;;4995162;28;20030;-81
2022/08/22 04:46:25;;;;;;;11.93;7.72;;;;;;;;;;4998454;28;20491;-81
2022/08/22 04:49:32;;;;;;;13.35;8.25;;;;;;;;;;4993953;28;20097;-81
2022/08/22 04:52:03;;;;;;;13.90;8.23;;;;;;;;;;4989272;28;20038;-81
2022/08/22 04:54:39;;;;;;;11.07;7.60;;;;;;;;;;4978522;28;20022;-82
2022/08/22 04:57:23;;;;;;;10.93;7.68;;;;;;;;;;4991406;28;20027;-81
2022/08/22 04:59:49;;;;;;;15.15;8.82;;;;;;;;;;4993312;28;20093;-81
2022/08/22 05:02:26;;;;;;;14.05;8.50;;;;;;;;;;4998019;28;20068;-81
2022/08/22 05:05:03;;;;;;;15.10;8.93;;;;;;;;;;4994982;28;21403;-80
2022/08/22 05:07:35;;;;;;;13.02;8.80;;;;;;;;;;4993671;28;20461;-81
2022/08/22 05:10:16;;;;;;;10.68;8.27;;;;;;;;;;5003836;28;20030;-81
2022/08/22 05:12:48;;;;;;;12.88;8.55;;;;;;;;;;4994032;28;20034;-80
2022/08/22 05:15:27;;;;;;;13.57;9.15;;;;;;;;;;4994999;28;20026;-79
2022/08/22 05:17:58;;;;;;;12.55;8.82;;;;;;;;;;4992806;28;20570;-80
2022/08/22 05:20:27;;;;;;;17.52;11.68;;;;;;;;;;4996643;28;20337;-80
2022/08/22 05:22:57;;;;;;;27.15;19.17;;;;;;;;;;4992235;28;20026;-80
2022/08/22 05:25:32;;;;;;;16.02;10.30;;;;;;;;;;4992845;28;20526;-81
2022/08/22 05:28:16;;;;;;;12.88;8.88;;;;;;;;;;4991319;28;20045;-80
2022/08/22 05:30:46;;;;;;;14.70;10.40;;;;;;;;;;4976643;28;20027;-80
2022/08/22 05:33:20;;;;;;;14.73;9.40;;;;;;;;;;4992723;28;20030;-80
2022/08/22 05:35:51;;;;;;;23.52;15.82;;;;;;;;;;4994304;28;20033;-81
2022/08/22 05:38:27;;;;;;;36.78;23.83;;;;;;;;;;4999746;28;20033;-80
2022/08/22 05:41:00;;;;;;;15.57;8.25;;;;;;;;;;4995943;28;20025;-80
2022/08/22 05:43:26;;;;;;;13.20;10.13;;;;;;;;;;4999135;28;20097;-80
2022/08/22 05:45:56;;;;;;;13.50;8.73;;;;;;;;;;5005886;28;20029;-80
2022/08/22 05:48:36;;;;;;;15.38;9.85;;;;;;;;;;4994996;28;20025;-80
2022/08/22 05:51:20;;;;;;;13.90;9.32;;;;;;;;;;4997992;28;20026;-80
2022/08/22 05:53:50;;;;;;;14.30;9.93;;;;;;;;;;4993924;28;20034;-80
2022/08/22 05:56:36;;;;;;;14.40;10.63;;;;;;;;;;4981531;28;20057;-80
2022/08/22 05:59:09;;;;;;;13.77;9.32;;;;;;;;;;4996367;28;20037;-80
2022/08/22 06:01:47;;;;;;;13.93;9.40;;;;;;;;;;5001257;28;20045;-80
2022/08/22 06:04:28;;;;;;;14.15;9.32;;;;;;;;;;4990137;28;20037;-79
2022/08/22 06:07:13;;;;;;;14.50;10.02;;;;;;;;;;4977113;28;20540;-81
2022/08/22 06:09:47;;;;;;;15.40;9.57;;;;;;;;;;5000759;28;20030;-81
2022/08/22 06:12:20;;;;;;;15.80;10.30;;;;;;;;;;4993944;28;20113;-80
2022/08/22 06:14:51;;;;;;;13.35;9.88;;;;;;;;;;4991191;28;20530;-80
2022/08/22 06:17:21;;;;;;;15.27;10.95;;;;;;;;;;5000782;28;20032;-80
2022/08/22 06:19:51;;;;;;;13.35;9.32;;;;;;;;;;4973701;28;20038;-80
2022/08/22 06:22:19;;;;;;;;;;;;;;;;;;5001075;28;20034;-82
2022/08/22 06:24:46;;;;;;;12.32;8.23;;;;;;;;;;5004557;28;19917;-81
2022/08/22 06:27:15;;;;;;;11.13;7.97;;;;;;;;;;4995649;28;20038;-80
2022/08/22 06:29:49;;;;;;;13.98;8.75;;;;;;;;;;4994790;28;20371;-81
2022/08/22 06:32:21;;;;;;;90.90;67.38;;;;;;;;;;4992020;28;20026;-81
2022/08/22 06:34:48;;;;;;;12.43;9.32;;;;;;;;;;4993810;28;20041;-82
2022/08/22 06:37:22;;;;;;;18.65;14.30;;;;;;;;;;4997515;28;20034;-81
2022/08/22 06:39:52;;;;;;;12.32;8.23;;;;;;;;;;4995423;28;20509;-82
2022/08/22 06:42:24;;;;;;;10.57;7.45;;;;;;;;;;4999443;28;20026;-82
2022/08/22 06:45:08;;;;;;;11.68;8.05;;;;;;;;;;4978376;28;20149;-83
2022/08/22 06:47:41;;;;;;;10.57;7.93;;;;;;;;;;4976884;28;20030;-82
2022/08/22 06:50:13;;;;;;;10.35;7.10;;;;;;;;;;4997036;28;20506;-82
2022/08/22 06:52:57;;;;;;;11.23;6.90;;;;;;;;;;4997933;28;20385;-82
2022/08/22 06:55:25;;;;;;;9.40;7.10;;;;;;;;;;4999160;28;20164;-82
2022/08/22 06:57:55;;;;;;;9.27;7.05;;;;;;;;;;4990437;28;20029;-81
2022/08/22 07:00:21;;;;;;;8.00;5.40;;;;;;;;;;4994488;28;20486;-81
2022/08/22 07:03:05;;;;;;;8.05;6.07;;;;;;;;;;4997547;28;20105;-82
2022/08/22 07:05:36;;;;;;;6.97;5.80;;;;;;;;;;4992595;28;20553;-81
2022/08/22 07:08:12;;;;;;;8.55;5.93;;;;;;;;;;4974869;28;20030;-83
2022/08/22 07:10:43;;;;;;;7.28;5.75;;;;;;;;;;4991168;28;20049;-82
2022/08/22 07:13:13;;;;;;;8.02;5.18;;;;;;;;;;4994486;28;20030;-81
2022/08/22 07:15:41;;;;;;;7.28;5.75;;;;;;;;;;4987908;28;20039;-83
2022/08/22 07:18:15;;;;;;;11.23;5.03;;;;;;;;;;4998351;28;20835;-82
2022/08/22 07:20:44;;;;;;;6.07;4.60;;;;;;;;;;4990480;28;20061;-82
2022/08/22 07:23:13;;;;;;;7.93;5.57;;;;;;;;;;4978233;28;20033;-82
2022/08/22 07:25:54;;;;;;;7.50;5.28;;;;;;;;;;4996092;28;20113;-83
2022/08/22 07:28:41;;;;;;;7.15;5.43;;;;;;;;;;5001563;28;20030;-82
2022/08/22 07:31:16;;;;;;;10.80;5.78;;;;;;;;;;4995960;28;20076;-83
2022/08/22 07:33:48;;;;;;;7.32;5.32;;;;;;;;;;4995218;28;20026;-82
2022/08/22 07:36:21;;;;;;;6.75;5.60;;;;;;;;;;4994450;28;20035;-82
2022/08/22 07:39:08;;;;;;;7.43;5.50;;;;;;;;;;4996909;28;20479;-82
2022/08/22 07:41:49;;;;;;;6.50;5.35;;;;;;;;;;4979984;28;20062;-81
2022/08/22 07:44:19;;;;;;;9.82;6.20;;;;;;;;;;4983957;28;20036;-82
2022/08/22 07:47:06;;;;;;;8.73;5.97;;;;;;;;;;4997458;28;20099;-82
2022/08/22 07:49:44;;;;;;;9.68;5.20;;;;;;;;;;4998946;28;20032;-82
2022/08/22 07:52:12;;;;;;;7.35;5.85;;;;;;;;;;4994097;28;20527;-83
2022/08/22 07:54:56;;;;;;;11.30;6.35;;;;;;;;;;4996843;28;20034;-82
2022/08/22 07:57:31;;;;;;;8.32;6.95;;;;;;;;;;5000582;28;20468;-82
2022/08/22 07:59:59;;;;;;;9.25;6.45;;;;;;;;;;4993937;28;20618;-81
2022/08/22 08:02:26;;;;;;;8.13;6.70;;;;;;;;;;4981476;28;20432;-82
2022/08/22 08:04:55;;;;;;;9.52;6.50;;;;;;;;;;4981348;28;20379;-82
2022/08/22 08:07:24;;;;;;;9.45;6.82;;;;;;;;;;4990254;28;20030;-81
2022/08/22 08:09:55;;;;;;;7.00;5.60;;;;;;;;;;4996759;28;20101;-81
2022/08/22 08:12:30;;;;;;;8.27;6.30;;;;;;;;;;4994384;28;20077;-81
2022/08/22 08:14:56;;;;;;;11.93;6.63;;;;;;;;;;4979826;28;20660;-81
2022/08/22 08:17:27;;;;;;;8.48;6.15;;;;;;;;;;4996725;28;20081;-81
2022/08/22 08:19:54;;;;;;;8.98;7.05;;;;;;;;;;4994689;28;20034;-82
2022/08/22 08:22:24;;;;;;;11.20;6.55;;;;;;;;;;4994085;28;20034;-85
2022/08/22 08:24:50;;;;;;;9.68;8.13;;;;;;;;;;4997443;28;20045;-82
2022/08/22 08:30:18;;;;;;;11.88;8.27;;;;;;;;;;5003751;28;20164;-84
2022/08/22 08:32:52;;;;;;;9.55;6.35;;;;;;;;;;4998733;28;20526;-82
2022/08/22 08:35:31;;;;;;;11.00;7.05;;;;;;;;;;4992176;28;20084;-81
2022/08/22 08:38:02;;;;;;;8.48;6.50;;;;;;;;;;4989648;28;20026;-81
2022/08/22 08:40:53;;;;;;;9.45;6.68;;;;;;;;;;4995937;28;20035;-82
2022/08/22 08:43:33;;;;;;;7.88;6.47;;;;;;;;;;4997256;28;20466;-80
2022/08/22 08:46:33;;;;;;;9.23;6.68;;;;;;;;;;5001405;28;20026;-81
2022/08/22 08:49:08;;;;;;;7.68;6.75;;;;;;;;;;4993984;28;20466;-81
2022/08/22 08:52:32;;;;;;;12.00;9.05;;;;;;;;;;4999989;28;20518;-81
2022/08/22 08:55:11;;;;;;;10.48;6.97;;;;;;;;;;4938236;29;20036;-80
2022/08/22 08:57:52;;;;;;;9.88;7.60;;;;;;;;;;4932865;29;20043;-80
2022/08/22 09:00:22;;;;;;;10.05;6.93;;;;;;;;;;4971873;28;20042;-80
2022/08/22 09:02:51;;;;;;;;;;;;;;;;;;4999740;28;20026;-80
2022/08/22 09:05:30;;;;;;;9.93;7.53;;;;;;;;;;4983668;28;20387;-81
2022/08/22 09:08:01;;;;;;;7.80;6.43;;;;;;;;;;4994071;28;20669;-80
2022/08/22 09:10:47;;;;;;;12.75;9.20;;;;;;;;;;4994589;28;20775;-81
2022/08/22 09:13:31;;;;;;;13.93;9.52;;;;;;;;;;4998709;28;20022;-80
2022/08/22 09:16:11;;;;;;;10.35;7.22;;;;;;;;;;4997937;28;20060;-81
2022/08/22 09:19:08;;;;;;;10.32;7.32;;;;;;;;;;4994016;28;20089;-81
2022/08/22 09:21:48;;;;;;;9.25;7.60;;;;;;;;;;4996740;28;20406;-81
2022/08/22 09:24:39;;;;;;;9.02;6.82;;;;;;;;;;4992812;28;20030;-80
2022/08/22 09:27:32;;;;;;;8.05;6.97;;;;;;;;;;4998257;28;20057;-81
2022/08/22 09:30:10;;;;;;;8.13;6.28;;;;;;;;;;4994521;28;20154;-80
2022/08/22 09:32:58;;;;;;;10.07;6.88;;;;;;;;;;4992582;28;20026;-80
2022/08/22 09:35:43;;;;;;;9.75;7.50;;;;;;;;;;4976882;28;20034;-81
2022/08/22 09:38:47;;;;;;;11.20;7.50;;;;;;;;;;4990491;28;20109;-81
2022/08/22 09:41:34;;;;;;;9.65;7.35;;;;;;;;;;4917459;29;20032;-81
2022/08/22 09:44:11;;;;;;;9.15;7.75;;;;;;;;;;4988574;28;20042;-81
2022/08/22 09:47:09;;;;;;;9.15;7.10;;;;;;;;;;4993930;28;20482;-81
2022/08/22 09:50:04;;;;;;;11.52;7.93;;;;;;;;;;4990572;28;20030;-80
2022/08/22 09:52:42;;;;;;;8.98;7.35;;;;;;;;;;4989769;28;20061;-81
2022/08/22 09:55:41;;;;;;;8.98;7.10;;;;;;;;;;5002845;28;20356;-81
2022/08/22 09:58:19;;;;;;;;;;;;;;;;;;4991923;28;20026;-80
2022/08/22 10:00:54;;;;;;;8.35;7.03;;;;;;;;;;4979445;28;20421;-81
2022/08/22 10:04:09;;;;;;;9.15;6.85;;;;;;;;;;4989360;28;20073;-81
2022/08/22 10:06:56;;;;;;;7.30;6.53;;;;;;;;;;5001754;28;20112;-82
2022/08/22 10:09:27;;;;;;;9.32;7.45;;;;;;;;;;4973515;28;20045;-83
2022/08/22 10:12:15;;;;;;;9.73;7.03;;;;;;;;;;4996274;28;20030;-83
2022/08/22 10:14:50;;;;;;;10.20;7.57;;;;;;;;;;5000088;28;20056;-82
2022/08/22 10:17:31;;;;;;;12.20;7.60;;;;;;;;;;4989601;28;20383;-82
2022/08/22 10:20:23;;;;;;;8.80;7.15;;;;;;;;;;4992890;28;20141;-82
2022/08/22 10:22:54;;;;;;;8.90;7.47;;;;;;;;;;4992705;28;20117;-83
2022/08/22 10:25:41;;;;;;;8.88;7.88;;;;;;;;;;4992056;28;20026;-82
2022/08/22 10:28:11;;;;;;;9.75;7.32;;;;;;;;;;4996213;28;20026;-81
2022/08/22 10:30:43;;;;;;;10.75;7.85;;;;;;;;;;4991063;28;20026;-82
2022/08/22 10:33:26;;;;;;;10.57;7.20;;;;;;;;;;4993687;28;20066;-83
2022/08/22 10:36:12;;;;;;;11.27;8.52;;;;;;;;;;4994995;28;20030;-82
2022/08/22 10:38:50;;;;;;;8.57;7.10;;;;;;;;;;4992733;28;20026;-81
2022/08/22 10:41:35;;;;;;;8.23;6.90;;;;;;;;;;4994589;28;20031;-81
2022/08/22 10:44:09;;;;;;;10.20;8.43;;;;;;;;;;4995430;28;20030;-82
2022/08/22 10:46:37;;;;;;;13.48;8.05;;;;;;;;;;4993139;28;20037;-81
2022/08/22 10:49:58;;;;;;;9.75;8.48;;;;;;;;;;4991865;28;20022;-82
2022/08/22 10:52:31;;;;;;;9.48;7.43;;;;;;;;;;4956451;28;20116;-83
2022/08/22 10:55:05;;;;;;;11.38;8.00;;;;;;;;;;4997176;28;20030;-82
2022/08/22 10:57:55;;;;;;;8.95;7.45;;;;;;;;;;4978015;28;20498;-82
2022/08/22 11:00:26;;;;;;;;;;;;;;;;;;4992422;28;20113;-82
2022/08/22 11:03:24;;;;;;;10.23;8.10;;;;;;;;;;4994474;28;19917;-82
2022/08/22 11:05:52;;;;;;;13.32;10.63;;;;;;;;;;4994985;28;20165;-82
2022/08/22 11:08:31;;;;;;;14.00;7.75;;;;;;;;;;4995126;28;20063;-82
2022/08/22 11:11:34;;;;;;;9.93;8.10;;;;;;;;;;4997579;28;20037;-82
2022/08/22 11:14:20;;;;;;;10.43;7.28;;;;;;;;;;4990336;28;20026;-83
2022/08/22 11:16:56;;;;;;;10.65;7.60;;;;;;;;;;4978611;28;20030;-81
2022/08/22 11:19:30;;;;;;;11.80;7.55;;;;;;;;;;5002681;28;20042;-82
2022/08/22 11:22:17;;;;;;;10.27;7.78;;;;;;;;;;4980738;28;20030;-83
2022/08/22 11:25:23;;;;;;;8.95;7.93;;;;;;;;;;4996583;28;20050;-83
2022/08/22 11:28:07;;;;;;;10.10;7.57;;;;;;;;;;5003277;28;20034;-83
2022/08/22 11:30:58;;;;;;;13.15;8.95;;;;;;;;;;5011046;28;20032;-83
2022/08/22 11:33:49;;;;;;;9.88;8.30;;;;;;;;;;4998001;28;20046;-84
2022/08/22 11:36:43;;;;;;;12.75;8.88;;;;;;;;;;4993485;28;20092;-82
2022/08/22 11:39:24;;;;;;;14.20;9.10;;;;;;;;;;4994652;28;20030;-83
2022/08/22 11:42:11;;;;;;;12.60;9.25;;;;;;;;;;4984889;28;20608;-81
2022/08/22 11:44:52;;;;;;;12.55;9.52;;;;;;;;;;4999305;28;20532;-81
2022/08/22 11:47:24;;;;;;;14.05;9.90;;;;;;;;;;5002753;28;20073;-81
2022/08/22 11:49:57;;;;;;;11.40;8.63;;;;;;;;;;4986249;28;20040;-81
2022/08/22 11:52:29;;;;;;;13.85;10.52;;;;;;;;;;5006938;28;20602;-82
2022/08/22 11:55:06;;;;;;;13.13;9.05;;;;;;;;;;4994578;28;20034;-82
2022/08/22 11:57:42;;;;;;;12.23;9.65;;;;;;;;;;5000011;28;20057;-82
2022/08/22 12:00:38;;;;;;;15.05;10.30;;;;;;;;;;4978424;28;20026;-80
2022/08/22 12:03:25;;;;;;;11.65;8.80;;;;;;;;;;4999444;28;20077;-81
2022/08/22 12:06:31;;;;;;;14.10;10.13;;;;;;;;;;4997640;28;20037;-81
2022/08/22 12:09:27;;;;;;;11.95;8.68;;;;;;;;;;5002507;28;20064;-81
2022/08/22 12:11:58;;;;;;;11.38;8.57;;;;;;;;;;4996367;28;20044;-81
2022/08/22 12:15:16;;;;;;;9.20;8.02;;;;;;;;;;4998699;28;20018;-81
2022/08/22 12:18:02;;;;;;;12.50;8.52;;;;;;;;;;4971934;28;20058;-81
2022/08/22 12:21:01;;;;;;;15.05;8.00;;;;;;;;;;5005069;28;20135;-82
2022/08/22 12:23:43;;;;;;;11.15;8.63;;;;;;;;;;5002872;28;20389;-84
2022/08/22 12:26:47;;;;;;;11.18;9.20;;;;;;;;;;5008151;28;20099;-83
2022/08/22 12:29:34;;;;;;;9.35;8.35;;;;;;;;;;4999893;28;20077;-82
2022/08/22 12:32:08;;;;;;;15.25;8.88;;;;;;;;;;4999088;28;20022;-82
2022/08/22 12:34:37;;;;;;;10.38;8.13;;;;;;;;;;4996204;28;20038;-82
2022/08/22 12:37:22;;;;;;;10.32;8.68;;;;;;;;;;5003796;28;20061;-82
2022/08/22 12:40:35;;;;;;;9.85;8.43;;;;;;;;;;5000637;28;20437;-81
2022/08/22 12:43:12;;;;;;;12.00;8.43;;;;;;;;;;4937545;29;20504;-81
2022/08/22 12:45:55;;;;;;;11.93;8.07;;;;;;;;;;4938858;29;20027;-81
2022/08/22 12:48:39;;;;;;;11.68;8.63;;;;;;;;;;4981110;28;20131;-82
2022/08/22 12:51:33;;;;;;;10.05;8.65;;;;;;;;;;4979171;28;20026;-81
2022/08/22 12:54:17;;;;;;;13.18;8.98;;;;;;;;;;5002939;28;20034;-81
2022/08/22 12:56:51;;;;;;;10.98;7.70;;;;;;;;;;4999947;28;20125;-81
2022/08/22 12:59:38;;;;;;;12.10;8.70;;;;;;;;;;5001863;28;20449;-82
2022/08/22 13:02:22;;;;;;;10.02;8.13;;;;;;;;;;4996210;28;20034;-82
2022/08/22 13:04:57;;;;;;;12.27;8.98;;;;;;;;;;4994644;28;20057;-82
2022/08/22 13:07:33;;;;;;;11.65;7.90;;;;;;;;;;4980332;28;20037;-82
2022/08/22 13:10:04;;;;;;;10.70;8.38;;;;;;;;;;4998665;28;20513;-81
2022/08/22 13:12:46;;;;;;;9.70;8.25;;;;;;;;;;4998263;28;20035;-81
2022/08/22 13:15:34;;;;;;;11.00;8.30;;;;;;;;;;4985054;28;20034;-81
2022/08/22 13:50:17;;;;;;;14.43;8.90;;;;;;;;;;5108266;27;20787;-79
2022/08/22 13:52:56;;;;;;;9.88;8.88;;;;;;;;;;5102539;28;20052;-80
2022/08/22 13:55:28;;;;;;;12.25;9.45;;;;;;;;;;5105104;28;20106;-79
2022/08/22 13:58:15;;;;;;;12.40;8.23;;;;;;;;;;5107533;28;20020;-81
2022/08/22 14:01:18;;;;;;;14.82;8.63;;;;;;;;;;5102017;28;20024;-80
2022/08/22 14:03:58;;;;;;;15.82;9.73;;;;;;;;;;5106636;28;20059;-81
2022/08/22 14:06:36;;;;;;;9.23;8.20;;;;;;;;;;5105189;28;20050;-82
2022/08/22 14:09:12;;;;;;;11.88;8.23;;;;;;;;;;5106627;28;20024;-81
2022/08/22 14:11:48;;;;;;;10.05;7.40;;;;;;;;;;5101450;28;20031;-81
2022/08/22 14:14:22;;;;;;;9.38;7.15;;;;;;;;;;5102239;28;20036;-81
2022/08/22 14:16:51;;;;;;;8.68;6.28;;;;;;;;;;5098183;28;20074;-80
2022/08/22 14:19:35;;;;;;;15.48;7.30;;;;;;;;;;5102915;28;20080;-81
2022/08/22 14:22:04;;;;;;;11.00;7.43;;;;;;;;;;5105421;28;20521;-80
2022/08/22 14:24:36;;;;;;;10.73;6.93;;;;;;;;;;5098747;28;20070;-81
2022/08/22 14:27:06;;;;;;;11.80;8.07;;;;;;;;;;5087296;28;20269;-81
2022/08/22 14:29:40;;;;;;;10.68;7.20;;;;;;;;;;5101756;28;20035;-81
2022/08/22 14:32:29;;;;;;;12.25;8.35;;;;;;;;;;5101119;28;20033;-80
2022/08/22 14:35:00;;;;;;;10.52;7.78;;;;;;;;;;5107013;28;20103;-81
2022/08/22 14:37:34;;;;;;;10.80;8.43;;;;;;;;;;5132642;27;20085;-81
2022/08/22 14:40:08;;;;;;;11.40;7.97;;;;;;;;;;5102809;28;20024;-81
2022/08/22 14:42:50;;;;;;;10.45;7.82;;;;;;;;;;5127938;27;20056;-82
2022/08/22 14:45:20;;;;;;;10.65;8.10;;;;;;;;;;5104582;28;20024;-80
2022/08/22 14:47:52;;;;;;;9.48;7.10;;;;;;;;;;5102986;28;20035;-81
2022/08/22 14:50:39;;;;;;;12.82;7.50;;;;;;;;;;5097961;28;20054;-81
2022/08/22 14:53:25;;;;;;;9.98;8.05;;;;;;;;;;5087011;28;20035;-81
2022/08/22 14:56:18;;;;;;;10.80;8.77;;;;;;;;;;5093568;28;20039;-81
2022/08/22 14:59:01;;;;;;;15.15;8.35;;;;;;;;;;5087542;28;20028;-81
2022/08/22 15:01:32;;;;;;;11.20;7.82;;;;;;;;;;5093011;28;20028;-81
2022/08/22 15:04:05;;;;;;;11.38;8.52;;;;;;;;;;5088215;28;20024;-81
2022/08/22 15:06:38;;;;;;;13.18;8.65;;;;;;;;;;5088406;28;20050;-81
2022/08/22 15:09:26;;;;;;;13.25;9.82;;;;;;;;;;5088315;28;20028;-82
2022/08/22 15:11:51;;;;;;;12.93;9.18;;;;;;;;;;5082920;28;20359;-83
2022/08/22 15:14:41;;;;;;;14.50;8.93;;;;;;;;;;5089535;28;20023;-84
2022/08/22 15:17:08;;;;;;;;;;;;;;;;;;5089980;28;20032;-82
2022/08/22 15:19:46;;;;;;;12.45;8.55;;;;;;;;;;5090249;28;20284;-81
2022/08/22 15:22:24;;;;;;;10.68;8.05;;;;;;;;;;5093852;28;20533;-82
2022/08/22 15:24:56;;;;;;;12.20;9.10;;;;;;;;;;5085506;28;20035;-81
2022/08/22 15:27:24;;;;;;;14.27;9.30;;;;;;;;;;5091110;28;20502;-81
2022/08/22 15:29:57;;;;;;;11.32;8.60;;;;;;;;;;5089146;28;20050;-81
2022/08/22 15:32:27;;;;;;;11.80;9.13;;;;;;;;;;5089022;28;20520;-82
2022/08/22 15:35:03;;;;;;;10.95;8.75;;;;;;;;;;5090150;28;20031;-81
2022/08/22 15:37:32;;;;;;;11.40;8.90;;;;;;;;;;5092608;28;20063;-81
2022/08/22 15:40:10;;;;;;;12.18;8.75;;;;;;;;;;5088009;28;20035;-81
2022/08/22 15:42:40;;;;;;;10.43;8.07;;;;;;;;;;5087280;28;20044;-82
2022/08/22 15:45:06;;;;;;;11.77;8.45;;;;;;;;;;5091169;28;20066;-81
2022/08/22 15:47:37;;;;;;;11.38;9.15;;;;;;;;;;5088686;28;20027;-82
2022/08/22 15:50:25;;;;;;;10.00;7.38;;;;;;;;;;5089977;28;20044;-82
2022/08/22 15:53:12;;;;;;;13.17;9.17;;;;;;;;;;5092297;28;20031;-83
2022/08/22 15:56:05;;;;;;;10.32;7.90;;;;;;;;;;5090055;28;20054;-81
2022/08/22 15:58:35;;;;;;;10.68;8.02;;;;;;;;;;5086718;28;20650;-81
2022/08/22 16:01:08;;;;;;;10.80;7.97;;;;;;;;;;5081388;28;20573;-80
2022/08/22 16:03:38;;;;;;;11.23;7.55;;;;;;;;;;5083563;28;20028;-80
2022/08/22 16:06:07;;;;;;;12.75;8.48;;;;;;;;;;5084133;28;20054;-81
2022/08/22 16:08:35;;;;;;;11.48;8.48;;;;;;;;;;5091695;28;20035;-80
2022/08/22 16:11:13;;;;;;;11.88;8.60;;;;;;;;;;5084056;28;20476;-83
2022/08/22 16:13:42;;;;;;;12.18;8.90;;;;;;;;;;5083194;28;20532;-80
2022/08/22 16:16:26;;;;;;;12.65;8.60;;;;;;;;;;5087986;28;20085;-81
2022/08/22 16:18:51;;;;;;;11.18;8.00;;;;;;;;;;5084609;28;20028;-85
2022/08/22 16:21:19;;;;;;;13.35;9.05;;;;;;;;;;5083261;28;20034;-84
2022/08/22 16:23:45;;;;;;;10.20;8.02;;;;;;;;;;5087824;28;20035;-80
2022/08/22 16:26:19;;;;;;;16.70;11.90;;;;;;;;;;5090101;28;20036;-80
2022/08/22 16:29:02;;;;;;;16.05;12.15;;;;;;;;;;5089819;28;20390;-80